Search for airport 
image banner adimage banner adimage banner ad
image banner ad

SJFU - Tabuleiro Airport

Located in Bananeiras, Brazil

ICAO - SJFU, IATA -

Data provided by Airmate  

General information

Coordinates: S6°41'39" W35°37'49"
Elevation is 1715 feet MSL.
Magnetic variation is -21° East
View others Airports in Paraíba

Operational data

Special qualification required
Current time UTC:
Current local time:
METAR: SBKG 082300Z 09012KT CAVOK 25/21 Q1014
TAF: TAF SBKG 081500Z 0818/0906 10015KT 9999 SCT020 TX30/0818Z TN22/0906Z BECMG 0822/0824 07005KT BKN015 PROB40 0903/0906 4000 BR BKN005 RMK PGU
View NOTAMs / SUP AIP / TFR affecting this airport [VIEW]
Communications frequencies: [VIEW]

Runways:

RWY identifierQFULength (ft)Width (ft)SurfaceLDA (ft)
04295265GRASS
22295265GRASS

Airport contact information

Address: Bananeiras Brazil

Satellite view of SJFU